sensor_id;sensor_type;location;lat;lon;timestamp;pressure;altitude;pressure_sealevel;temperature;humidity
74336;BME280;62755;-33.398;-70.572;2024-03-23T00:55:58;93206.25;;;28.25;34.44
74336;BME280;62755;-33.398;-70.572;2024-03-23T00:58:26;93210.00;;;28.09;34.78
74336;BME280;62755;-33.398;-70.572;2024-03-23T01:00:55;93207.09;;;28.20;34.64
74336;BME280;62755;-33.398;-70.572;2024-03-23T01:03:24;93209.69;;;28.31;34.67
74336;BME280;62755;-33.398;-70.572;2024-03-23T01:05:53;93216.16;;;28.15;35.43
74336;BME280;62755;-33.398;-70.572;2024-03-23T01:08:21;93228.31;;;28.25;34.92
74336;BME280;62755;-33.398;-70.572;2024-03-23T01:10:57;93230.72;;;28.15;34.89
74336;BME280;62755;-33.398;-70.572;2024-03-23T01:13:25;93231.25;;;28.14;35.38
74336;BME280;62755;-33.398;-70.572;2024-03-23T01:15:56;93237.81;;;28.11;34.93
74336;BME280;62755;-33.398;-70.572;2024-03-23T01:18:24;93230.94;;;27.99;35.56
74336;BME280;62755;-33.398;-70.572;2024-03-23T01:20:55;93234.53;;;27.88;35.51
74336;BME280;62755;-33.398;-70.572;2024-03-23T01:23:23;93240.44;;;27.73;35.95
74336;BME280;62755;-33.398;-70.572;2024-03-23T01:25:53;93243.03;;;27.42;36.00
74336;BME280;62755;-33.398;-70.572;2024-03-23T01:28:23;93238.06;;;27.35;35.79
74336;BME280;62755;-33.398;-70.572;2024-03-23T01:30:53;93247.59;;;27.63;34.95
74336;BME280;62755;-33.398;-70.572;2024-03-23T01:33:21;93242.06;;;27.63;34.56
74336;BME280;62755;-33.398;-70.572;2024-03-23T01:35:50;93255.25;;;27.46;34.71
74336;BME280;62755;-33.398;-70.572;2024-03-23T01:38:18;93252.25;;;27.44;34.63
74336;BME280;62755;-33.398;-70.572;2024-03-23T01:40:48;93269.31;;;27.08;34.42
74336;BME280;62755;-33.398;-70.572;2024-03-23T01:43:16;93263.00;;;27.18;34.31
74336;BME280;62755;-33.398;-70.572;2024-03-23T01:45:48;93276.97;;;26.90;33.79
74336;BME280;62755;-33.398;-70.572;2024-03-23T01:48:16;93280.22;;;26.89;33.44
74336;BME280;62755;-33.398;-70.572;2024-03-23T01:50:46;93284.06;;;26.75;33.40
74336;BME280;62755;-33.398;-70.572;2024-03-23T01:53:15;93286.34;;;26.71;33.51
74336;BME280;62755;-33.398;-70.572;2024-03-23T01:55:48;93287.03;;;26.82;32.66
74336;BME280;62755;-33.398;-70.572;2024-03-23T01:58:18;93292.72;;;26.90;33.32
74336;BME280;62755;-33.398;-70.572;2024-03-23T02:00:50;93302.09;;;26.70;32.46
74336;BME280;62755;-33.398;-70.572;2024-03-23T02:03:27;93298.91;;;27.02;32.67
74336;BME280;62755;-33.398;-70.572;2024-03-23T02:05:57;93297.19;;;26.93;32.29
74336;BME280;62755;-33.398;-70.572;2024-03-23T02:08:26;93296.19;;;26.96;32.54
74336;BME280;62755;-33.398;-70.572;2024-03-23T02:10:55;93284.28;;;26.82;32.48
74336;BME280;62755;-33.398;-70.572;2024-03-23T02:13:25;93273.13;;;26.99;32.50
74336;BME280;62755;-33.398;-70.572;2024-03-23T02:15:56;93266.22;;;26.87;31.96
74336;BME280;62755;-33.398;-70.572;2024-03-23T02:18:25;93256.53;;;26.69;32.95
74336;BME280;62755;-33.398;-70.572;2024-03-23T02:20:54;93262.78;;;26.81;33.71
74336;BME280;62755;-33.398;-70.572;2024-03-23T02:23:24;93264.38;;;26.60;34.69
74336;BME280;62755;-33.398;-70.572;2024-03-23T02:25:54;93261.44;;;26.47;34.79
74336;BME280;62755;-33.398;-70.572;2024-03-23T02:28:22;93251.84;;;26.13;37.03
74336;BME280;62755;-33.398;-70.572;2024-03-23T02:30:52;93242.13;;;26.00;36.33
74336;BME280;62755;-33.398;-70.572;2024-03-23T02:33:20;93231.88;;;26.06;36.08
74336;BME280;62755;-33.398;-70.572;2024-03-23T02:35:50;93232.66;;;26.01;36.27
74336;BME280;62755;-33.398;-70.572;2024-03-23T02:38:25;93235.84;;;26.17;36.60
74336;BME280;62755;-33.398;-70.572;2024-03-23T02:40:54;93236.66;;;26.06;36.81
74336;BME280;62755;-33.398;-70.572;2024-03-23T02:43:23;93233.41;;;26.07;37.10
74336;BME280;62755;-33.398;-70.572;2024-03-23T02:45:52;93232.88;;;26.09;37.84
74336;BME280;62755;-33.398;-70.572;2024-03-23T02:48:21;93232.44;;;26.46;36.84
74336;BME280;62755;-33.398;-70.572;2024-03-23T02:50:50;93230.06;;;26.66;36.74
74336;BME280;62755;-33.398;-70.572;2024-03-23T02:53:19;93226.78;;;26.68;37.13
74336;BME280;62755;-33.398;-70.572;2024-03-23T02:55:50;93219.03;;;26.72;37.09
74336;BME280;62755;-33.398;-70.572;2024-03-23T02:58:18;93227.53;;;26.74;37.29
74336;BME280;62755;-33.398;-70.572;2024-03-23T03:00:48;93229.75;;;26.81;36.39
74336;BME280;62755;-33.398;-70.572;2024-03-23T03:03:16;93234.69;;;26.88;35.95
74336;BME280;62755;-33.398;-70.572;2024-03-23T03:05:44;93229.75;;;26.81;35.78
74336;BME280;62755;-33.398;-70.572;2024-03-23T03:08:14;93223.81;;;26.66;36.84
74336;BME280;62755;-33.398;-70.572;2024-03-23T03:10:42;93239.97;;;26.40;37.12
74336;BME280;62755;-33.398;-70.572;2024-03-23T03:13:14;93227.63;;;26.57;36.87
74336;BME280;62755;-33.398;-70.572;2024-03-23T03:15:43;93235.34;;;26.64;36.11
74336;BME280;62755;-33.398;-70.572;2024-03-23T03:18:12;93238.03;;;26.75;36.42
74336;BME280;62755;-33.398;-70.572;2024-03-23T03:20:40;93248.09;;;26.62;37.28
74336;BME280;62755;-33.398;-70.572;2024-03-23T03:23:11;93245.75;;;26.36;37.43
74336;BME280;62755;-33.398;-70.572;2024-03-23T03:25:39;93244.94;;;26.47;37.58
74336;BME280;62755;-33.398;-70.572;2024-03-23T03:28:09;93249.69;;;26.46;37.95
74336;BME280;62755;-33.398;-70.572;2024-03-23T03:30:39;93255.47;;;26.43;37.48
74336;BME280;62755;-33.398;-70.572;2024-03-23T03:33:08;93241.00;;;26.37;37.41
74336;BME280;62755;-33.398;-70.572;2024-03-23T03:35:36;93240.09;;;26.18;37.24
74336;BME280;62755;-33.398;-70.572;2024-03-23T03:38:06;93238.59;;;26.17;37.54
74336;BME280;62755;-33.398;-70.572;2024-03-23T03:40:34;93243.38;;;26.16;35.93
74336;BME280;62755;-33.398;-70.572;2024-03-23T03:43:04;93245.16;;;25.91;37.10
74336;BME280;62755;-33.398;-70.572;2024-03-23T03:45:33;93244.19;;;25.83;36.44
74336;BME280;62755;-33.398;-70.572;2024-03-23T03:48:05;93238.75;;;25.61;37.53
74336;BME280;62755;-33.398;-70.572;2024-03-23T03:50:33;93237.06;;;25.53;36.93
74336;BME280;62755;-33.398;-70.572;2024-03-23T03:53:03;93230.28;;;25.65;37.13
74336;BME280;62755;-33.398;-70.572;2024-03-23T03:55:31;93219.34;;;25.48;37.73
74336;BME280;62755;-33.398;-70.572;2024-03-23T03:58:01;93224.56;;;25.46;38.05
74336;BME280;62755;-33.398;-70.572;2024-03-23T04:00:29;93217.81;;;25.36;38.46
74336;BME280;62755;-33.398;-70.572;2024-03-23T04:02:59;93214.09;;;25.28;38.16
74336;BME280;62755;-33.398;-70.572;2024-03-23T04:05:29;93212.59;;;25.33;38.47
74336;BME280;62755;-33.398;-70.572;2024-03-23T04:07:58;93212.88;;;25.29;39.07
74336;BME280;62755;-33.398;-70.572;2024-03-23T04:10:27;93215.84;;;25.20;39.07
74336;BME280;62755;-33.398;-70.572;2024-03-23T04:12:57;93205.66;;;25.09;38.99
74336;BME280;62755;-33.398;-70.572;2024-03-23T04:15:25;93211.34;;;25.28;38.15
74336;BME280;62755;-33.398;-70.572;2024-03-23T04:17:55;93216.84;;;25.28;38.26
74336;BME280;62755;-33.398;-70.572;2024-03-23T04:20:23;93210.38;;;25.31;38.46
74336;BME280;62755;-33.398;-70.572;2024-03-23T04:22:54;93202.13;;;25.42;37.96
74336;BME280;62755;-33.398;-70.572;2024-03-23T04:25:23;93200.56;;;25.63;37.93
74336;BME280;62755;-33.398;-70.572;2024-03-23T04:27:52;93201.50;;;25.77;37.74
74336;BME280;62755;-33.398;-70.572;2024-03-23T04:30:20;93202.81;;;25.59;37.98
74336;BME280;62755;-33.398;-70.572;2024-03-23T04:32:52;93203.75;;;25.78;37.20
74336;BME280;62755;-33.398;-70.572;2024-03-23T04:35:20;93195.63;;;25.40;37.88
74336;BME280;62755;-33.398;-70.572;2024-03-23T04:37:54;93192.06;;;25.72;36.56
74336;BME280;62755;-33.398;-70.572;2024-03-23T04:40:25;93167.41;;;25.50;37.61
74336;BME280;62755;-33.398;-70.572;2024-03-23T04:42:55;93193.59;;;25.62;37.71
74336;BME280;62755;-33.398;-70.572;2024-03-23T04:45:25;93196.84;;;25.55;38.08
74336;BME280;62755;-33.398;-70.572;2024-03-23T04:47:55;93195.78;;;25.80;37.20
74336;BME280;62755;-33.398;-70.572;2024-03-23T04:50:24;93196.69;;;25.99;36.25
74336;BME280;62755;-33.398;-70.572;2024-03-23T04:52:56;93189.22;;;25.94;36.02
74336;BME280;62755;-33.398;-70.572;2024-03-23T04:55:25;93188.66;;;26.01;36.10
74336;BME280;62755;-33.398;-70.572;2024-03-23T04:57:55;93187.53;;;25.80;36.69
74336;BME280;62755;-33.398;-70.572;2024-03-23T05:00:23;93197.25;;;25.81;36.55
74336;BME280;62755;-33.398;-70.572;2024-03-23T05:02:53;93195.78;;;25.69;36.25
74336;BME280;62755;-33.398;-70.572;2024-03-23T05:05:21;93192.31;;;25.63;35.30
74336;BME280;62755;-33.398;-70.572;2024-03-23T05:07:51;93198.06;;;25.60;36.91
74336;BME280;62755;-33.398;-70.572;2024-03-23T05:10:21;93201.34;;;25.53;37.00
74336;BME280;62755;-33.398;-70.572;2024-03-23T05:12:50;93202.81;;;25.59;37.46
74336;BME280;62755;-33.398;-70.572;2024-03-23T05:15:19;93202.78;;;25.70;37.38
74336;BME280;62755;-33.398;-70.572;2024-03-23T05:17:48;93203.34;;;25.52;36.92
74336;BME280;62755;-33.398;-70.572;2024-03-23T05:20:17;93198.88;;;25.49;36.97
74336;BME280;62755;-33.398;-70.572;2024-03-23T05:22:47;93195.63;;;25.45;37.49
74336;BME280;62755;-33.398;-70.572;2024-03-23T05:25:15;93193.13;;;25.31;38.72
74336;BME280;62755;-33.398;-70.572;2024-03-23T05:27:47;93196.38;;;25.29;38.07
74336;BME280;62755;-33.398;-70.572;2024-03-23T05:30:15;93199.88;;;25.24;38.22
74336;BME280;62755;-33.398;-70.572;2024-03-23T05:32:45;93201.38;;;25.25;37.39
74336;BME280;62755;-33.398;-70.572;2024-03-23T05:35:13;93189.13;;;25.37;36.19
74336;BME280;62755;-33.398;-70.572;2024-03-23T05:37:43;93190.38;;;25.36;36.46
74336;BME280;62755;-33.398;-70.572;2024-03-23T05:40:13;93190.91;;;25.23;37.01
74336;BME280;62755;-33.398;-70.572;2024-03-23T05:42:43;93202.34;;;25.39;36.43
74336;BME280;62755;-33.398;-70.572;2024-03-23T05:45:13;93198.84;;;25.38;36.50
74336;BME280;62755;-33.398;-70.572;2024-03-23T05:47:45;93197.94;;;24.86;35.16
74336;BME280;62755;-33.398;-70.572;2024-03-23T05:50:14;93188.69;;;24.67;34.61
74336;BME280;62755;-33.398;-70.572;2024-03-23T05:52:45;93187.41;;;24.51;34.60
74336;BME280;62755;-33.398;-70.572;2024-03-23T05:55:13;93188.22;;;24.74;34.32
74336;BME280;62755;-33.398;-70.572;2024-03-23T05:57:43;93185.47;;;24.74;34.29
74336;BME280;62755;-33.398;-70.572;2024-03-23T06:00:14;93188.47;;;24.98;34.08
74336;BME280;62755;-33.398;-70.572;2024-03-23T06:02:44;93188.94;;;25.02;33.25
74336;BME280;62755;-33.398;-70.572;2024-03-23T06:05:13;93178.44;;;25.17;32.76
74336;BME280;62755;-33.398;-70.572;2024-03-23T06:07:43;93179.44;;;25.19;33.31
74336;BME280;62755;-33.398;-70.572;2024-03-23T06:10:11;93176.69;;;25.19;33.49
74336;BME280;62755;-33.398;-70.572;2024-03-23T06:12:40;93183.69;;;25.09;33.64
74336;BME280;62755;-33.398;-70.572;2024-03-23T06:15:09;93188.47;;;24.98;34.65
74336;BME280;62755;-33.398;-70.572;2024-03-23T06:17:41;93186.94;;;25.08;35.63
74336;BME280;62755;-33.398;-70.572;2024-03-23T06:20:10;93194.44;;;24.80;36.42
74336;BME280;62755;-33.398;-70.572;2024-03-23T06:22:39;93187.22;;;24.82;36.85
74336;BME280;62755;-33.398;-70.572;2024-03-23T06:25:08;93194.19;;;24.78;37.25
74336;BME280;62755;-33.398;-70.572;2024-03-23T06:27:39;93201.16;;;24.73;37.28
74336;BME280;62755;-33.398;-70.572;2024-03-23T06:30:08;93204.16;;;24.81;38.09
74336;BME280;62755;-33.398;-70.572;2024-03-23T06:32:38;93192.44;;;24.86;38.85
74336;BME280;62755;-33.398;-70.572;2024-03-23T06:35:08;93206.41;;;24.99;37.96
74336;BME280;62755;-33.398;-70.572;2024-03-23T06:37:38;93201.66;;;25.05;37.43
74336;BME280;62755;-33.398;-70.572;2024-03-23T06:40:08;93203.44;;;24.86;38.55
74336;BME280;62755;-33.398;-70.572;2024-03-23T06:42:38;93206.16;;;24.86;38.10
74336;BME280;62755;-33.398;-70.572;2024-03-23T06:45:07;93204.41;;;24.83;39.66
74336;BME280;62755;-33.398;-70.572;2024-03-23T06:47:37;93208.66;;;24.89;39.44
74336;BME280;62755;-33.398;-70.572;2024-03-23T06:50:07;93211.88;;;24.77;38.08
74336;BME280;62755;-33.398;-70.572;2024-03-23T06:52:37;93203.91;;;24.79;38.60
74336;BME280;62755;-33.398;-70.572;2024-03-23T06:55:06;93206.44;;;24.82;37.98
74336;BME280;62755;-33.398;-70.572;2024-03-23T06:57:36;93208.13;;;24.69;39.10
74336;BME280;62755;-33.398;-70.572;2024-03-23T07:00:05;93203.38;;;24.69;38.77
74336;BME280;62755;-33.398;-70.572;2024-03-23T07:02:37;93196.44;;;24.74;39.02
74336;BME280;62755;-33.398;-70.572;2024-03-23T07:05:07;93197.91;;;24.64;39.21
74336;BME280;62755;-33.398;-70.572;2024-03-23T07:07:38;93195.91;;;24.59;38.64
74336;BME280;62755;-33.398;-70.572;2024-03-23T07:10:07;93194.41;;;24.58;38.60
74336;BME280;62755;-33.398;-70.572;2024-03-23T07:12:37;93190.66;;;24.33;38.89
74336;BME280;62755;-33.398;-70.572;2024-03-23T07:15:06;93199.31;;;24.09;40.11
74336;BME280;62755;-33.398;-70.572;2024-03-23T07:17:35;93196.53;;;24.04;39.44
74336;BME280;62755;-33.398;-70.572;2024-03-23T07:20:04;93190.78;;;23.96;40.01
74336;BME280;62755;-33.398;-70.572;2024-03-23T07:22:39;93187.25;;;23.90;39.58
74336;BME280;62755;-33.398;-70.572;2024-03-23T07:25:08;93160.97;;;23.45;40.13
74336;BME280;62755;-33.398;-70.572;2024-03-23T07:27:37;93184.25;;;23.77;39.49
74336;BME280;62755;-33.398;-70.572;2024-03-23T07:30:07;93189.91;;;23.63;39.90
74336;BME280;62755;-33.398;-70.572;2024-03-23T07:32:36;93184.66;;;23.59;40.22
74336;BME280;62755;-33.398;-70.572;2024-03-23T07:35:05;93187.72;;;23.72;39.77
74336;BME280;62755;-33.398;-70.572;2024-03-23T07:37:35;93184.44;;;23.63;40.27
74336;BME280;62755;-33.398;-70.572;2024-03-23T07:40:06;93180.63;;;23.49;40.39
74336;BME280;62755;-33.398;-70.572;2024-03-23T07:42:36;93179.19;;;23.59;39.68
74336;BME280;62755;-33.398;-70.572;2024-03-23T07:45:05;93171.75;;;23.65;39.68
74336;BME280;62755;-33.398;-70.572;2024-03-23T07:47:36;93162.31;;;23.66;39.36
74336;BME280;62755;-33.398;-70.572;2024-03-23T07:50:05;93178.78;;;23.77;39.26
74336;BME280;62755;-33.398;-70.572;2024-03-23T07:52:35;93164.06;;;23.69;38.83
74336;BME280;62755;-33.398;-70.572;2024-03-23T07:55:05;93172.31;;;23.80;38.75
74336;BME280;62755;-33.398;-70.572;2024-03-23T07:57:35;93166.03;;;23.69;38.85
74336;BME280;62755;-33.398;-70.572;2024-03-23T08:00:04;93169.00;;;23.60;39.37
74336;BME280;62755;-33.398;-70.572;2024-03-23T08:02:35;93159.25;;;23.53;39.07
74336;BME280;62755;-33.398;-70.572;2024-03-23T08:05:03;93168.75;;;23.63;39.42
74336;BME280;62755;-33.398;-70.572;2024-03-23T08:07:33;93148.53;;;23.49;39.42
74336;BME280;62755;-33.398;-70.572;2024-03-23T08:10:03;93150.75;;;23.40;39.63
74336;BME280;62755;-33.398;-70.572;2024-03-23T08:12:33;93141.28;;;23.41;39.55
74336;BME280;62755;-33.398;-70.572;2024-03-23T08:15:01;93146.56;;;23.08;40.33
74336;BME280;62755;-33.398;-70.572;2024-03-23T08:17:31;93139.31;;;22.99;40.18
74336;BME280;62755;-33.398;-70.572;2024-03-23T08:19:59;93154.00;;;23.02;40.59
74336;BME280;62755;-33.398;-70.572;2024-03-23T08:22:30;93150.19;;;22.88;41.06
74336;BME280;62755;-33.398;-70.572;2024-03-23T08:24:58;93146.00;;;22.93;40.78
74336;BME280;62755;-33.398;-70.572;2024-03-23T08:27:29;93147.66;;;22.85;40.90
74336;BME280;62755;-33.398;-70.572;2024-03-23T08:29:58;93143.19;;;22.82;40.85
74336;BME280;62755;-33.398;-70.572;2024-03-23T08:32:27;93153.41;;;22.87;40.44
74336;BME280;62755;-33.398;-70.572;2024-03-23T08:34:55;93151.47;;;22.93;40.73
74336;BME280;62755;-33.398;-70.572;2024-03-23T08:37:25;93154.41;;;22.84;40.27
74336;BME280;62755;-33.398;-70.572;2024-03-23T08:39:54;93156.53;;;23.11;39.92
74336;BME280;62755;-33.398;-70.572;2024-03-23T08:42:24;93173.53;;;22.52;42.07
74336;BME280;62755;-33.398;-70.572;2024-03-23T08:44:54;93177.06;;;22.58;41.46
74336;BME280;62755;-33.398;-70.572;2024-03-23T08:47:23;93172.78;;;22.26;40.09
74336;BME280;62755;-33.398;-70.572;2024-03-23T08:49:52;93180.28;;;22.31;40.18
74336;BME280;62755;-33.398;-70.572;2024-03-23T08:52:22;93176.75;;;22.25;39.30
74336;BME280;62755;-33.398;-70.572;2024-03-23T08:54:50;93173.22;;;22.19;39.38
74336;BME280;62755;-33.398;-70.572;2024-03-23T08:57:20;93181.31;;;22.59;38.63
74336;BME280;62755;-33.398;-70.572;2024-03-23T08:59:48;93180.69;;;22.76;38.29
74336;BME280;62755;-33.398;-70.572;2024-03-23T09:02:20;93190.44;;;22.56;39.08
74336;BME280;62755;-33.398;-70.572;2024-03-23T09:04:48;93191.63;;;22.50;39.22
74336;BME280;62755;-33.398;-70.572;2024-03-23T09:07:17;93192.50;;;22.36;39.17
74336;BME280;62755;-33.398;-70.572;2024-03-23T09:09:46;93191.22;;;22.31;39.19
74336;BME280;62755;-33.398;-70.572;2024-03-23T09:12:16;93189.50;;;22.34;39.50
74336;BME280;62755;-33.398;-70.572;2024-03-23T09:14:44;93197.47;;;22.37;39.68
74336;BME280;62755;-33.398;-70.572;2024-03-23T09:17:13;93192.59;;;22.21;40.01
74336;BME280;62755;-33.398;-70.572;2024-03-23T09:19:44;93201.19;;;22.34;39.70
74336;BME280;62755;-33.398;-70.572;2024-03-23T09:22:14;93199.03;;;22.18;39.28
74336;BME280;62755;-33.398;-70.572;2024-03-23T09:24:42;93205.66;;;22.37;39.23
74336;BME280;62755;-33.398;-70.572;2024-03-23T09:27:11;93207.50;;;22.72;38.57
74336;BME280;62755;-33.398;-70.572;2024-03-23T09:29:41;93209.97;;;22.69;38.55
74336;BME280;62755;-33.398;-70.572;2024-03-23T09:32:09;93209.91;;;22.95;38.06
74336;BME280;62755;-33.398;-70.572;2024-03-23T09:34:39;93212.63;;;22.90;38.46
74336;BME280;62755;-33.398;-70.572;2024-03-23T09:37:09;93213.59;;;22.92;38.49
74336;BME280;62755;-33.398;-70.572;2024-03-23T09:42:07;93206.66;;;22.91;38.62
74336;BME280;62755;-33.398;-70.572;2024-03-23T09:44:36;93213.41;;;22.96;38.56
74336;BME280;62755;-33.398;-70.572;2024-03-23T09:47:05;93220.09;;;22.95;38.48
74336;BME280;62755;-33.398;-70.572;2024-03-23T09:49:35;93216.88;;;22.96;38.78
74336;BME280;62755;-33.398;-70.572;2024-03-23T09:52:04;93211.56;;;22.82;38.08
74336;BME280;62755;-33.398;-70.572;2024-03-23T09:54:35;93224.44;;;22.76;38.01
74336;BME280;62755;-33.398;-70.572;2024-03-23T09:57:04;93221.44;;;22.74;38.15
74336;BME280;62755;-33.398;-70.572;2024-03-23T09:59:34;93222.38;;;22.70;38.01
74336;BME280;62755;-33.398;-70.572;2024-03-23T10:02:03;93229.69;;;22.79;37.80
74336;BME280;62755;-33.398;-70.572;2024-03-23T10:04:42;93225.50;;;22.84;38.19
74336;BME280;62755;-33.398;-70.572;2024-03-23T10:07:13;93228.97;;;22.84;39.26
74336;BME280;62755;-33.398;-70.572;2024-03-23T10:09:46;93224.91;;;23.05;38.85
74336;BME280;62755;-33.398;-70.572;2024-03-23T10:12:16;93230.56;;;23.02;38.66
74336;BME280;62755;-33.398;-70.572;2024-03-23T10:14:46;93230.69;;;23.13;38.48
74336;BME280;62755;-33.398;-70.572;2024-03-23T10:17:16;93229.16;;;23.12;39.64
74336;BME280;62755;-33.398;-70.572;2024-03-23T10:19:46;93236.66;;;23.17;38.41
74336;BME280;62755;-33.398;-70.572;2024-03-23T10:22:18;93234.38;;;23.10;38.93
74336;BME280;62755;-33.398;-70.572;2024-03-23T10:24:50;93231.44;;;23.13;37.98
74336;BME280;62755;-33.398;-70.572;2024-03-23T10:27:19;93226.66;;;23.08;38.82
74336;BME280;62755;-33.398;-70.572;2024-03-23T10:29:50;93236.06;;;23.02;38.88
74336;BME280;62755;-33.398;-70.572;2024-03-23T10:32:18;93226.69;;;22.77;38.84
74336;BME280;62755;-33.398;-70.572;2024-03-23T10:34:48;93223.97;;;22.83;39.36
74336;BME280;62755;-33.398;-70.572;2024-03-23T10:37:17;93226.41;;;22.49;40.27
74336;BME280;62755;-33.398;-70.572;2024-03-23T10:39:49;93226.84;;;22.42;40.08
74336;BME280;62755;-33.398;-70.572;2024-03-23T10:42:18;93219.31;;;22.57;40.21
74336;BME280;62755;-33.398;-70.572;2024-03-23T10:44:49;93219.84;;;22.61;40.72
74336;BME280;62755;-33.398;-70.572;2024-03-23T10:47:21;93222.63;;;22.67;41.11
74336;BME280;62755;-33.398;-70.572;2024-03-23T10:49:49;93221.84;;;22.66;41.36
74336;BME280;62755;-33.398;-70.572;2024-03-23T10:52:19;93225.69;;;22.54;41.62
74336;BME280;62755;-33.398;-70.572;2024-03-23T10:54:50;93219.31;;;22.57;41.29
74336;BME280;62755;-33.398;-70.572;2024-03-23T10:57:23;93208.66;;;22.39;41.03
74336;BME280;62755;-33.398;-70.572;2024-03-23T10:59:54;93203.25;;;22.19;40.92
74336;BME280;62755;-33.398;-70.572;2024-03-23T11:02:26;93224.13;;;22.17;41.75
74336;BME280;62755;-33.398;-70.572;2024-03-23T11:04:55;93227.84;;;22.19;41.75
74336;BME280;62755;-33.398;-70.572;2024-03-23T11:07:31;93242.13;;;22.29;41.57
74336;BME280;62755;-33.398;-70.572;2024-03-23T11:10:01;93238.16;;;22.30;41.49
74336;BME280;62755;-33.398;-70.572;2024-03-23T11:12:31;93222.81;;;22.12;41.65
74336;BME280;62755;-33.398;-70.572;2024-03-23T11:15:04;93232.13;;;22.51;41.59
74336;BME280;62755;-33.398;-70.572;2024-03-23T11:17:34;93241.25;;;22.68;41.15
74336;BME280;62755;-33.398;-70.572;2024-03-23T11:20:03;93247.72;;;22.65;41.18
74336;BME280;62755;-33.398;-70.572;2024-03-23T11:22:42;93223.38;;;22.67;41.15
74336;BME280;62755;-33.398;-70.572;2024-03-23T11:25:18;93243.50;;;22.96;41.13
74336;BME280;62755;-33.398;-70.572;2024-03-23T11:27:48;93250.69;;;22.93;41.33
74336;BME280;62755;-33.398;-70.572;2024-03-23T11:30:18;93244.91;;;22.86;41.78
74336;BME280;62755;-33.398;-70.572;2024-03-23T11:32:49;93249.91;;;22.93;42.14
74336;BME280;62755;-33.398;-70.572;2024-03-23T11:35:27;93258.00;;;23.07;41.97
74336;BME280;62755;-33.398;-70.572;2024-03-23T11:38:08;93258.84;;;22.88;41.84
74336;BME280;62755;-33.398;-70.572;2024-03-23T11:40:38;93257.84;;;22.39;42.45
74336;BME280;62755;-33.398;-70.572;2024-03-23T11:43:08;93261.09;;;22.63;42.38
74336;BME280;62755;-33.398;-70.572;2024-03-23T11:45:40;93266.88;;;22.71;41.83
74336;BME280;62755;-33.398;-70.572;2024-03-23T11:48:11;93267.66;;;22.72;41.10
74336;BME280;62755;-33.398;-70.572;2024-03-23T11:50:40;93266.66;;;22.75;40.80
74336;BME280;62755;-33.398;-70.572;2024-03-23T11:53:15;93270.56;;;22.42;41.04
74336;BME280;62755;-33.398;-70.572;2024-03-23T11:55:47;93269.06;;;22.41;41.25
74336;BME280;62755;-33.398;-70.572;2024-03-23T11:58:17;93277.25;;;22.41;42.17
74336;BME280;62755;-33.398;-70.572;2024-03-23T12:00:50;93283.31;;;22.51;41.32
74336;BME280;62755;-33.398;-70.572;2024-03-23T12:03:20;93282.97;;;22.63;41.38
74336;BME280;62755;-33.398;-70.572;2024-03-23T12:05:53;93279.38;;;22.52;41.29
74336;BME280;62755;-33.398;-70.572;2024-03-23T12:08:23;93285.97;;;22.65;40.64
74336;BME280;62755;-33.398;-70.572;2024-03-23T12:11:05;93288.47;;;22.95;39.86
74336;BME280;62755;-33.398;-70.572;2024-03-23T12:13:36;93286.19;;;22.88;39.88
74336;BME280;62755;-33.398;-70.572;2024-03-23T12:16:10;93293.69;;;22.93;41.43
74336;BME280;62755;-33.398;-70.572;2024-03-23T12:18:41;93296.59;;;23.15;40.91
74336;BME280;62755;-33.398;-70.572;2024-03-23T12:21:10;93294.66;;;22.90;40.70
74336;BME280;62755;-33.398;-70.572;2024-03-23T12:23:40;93298.34;;;22.87;41.37
74336;BME280;62755;-33.398;-70.572;2024-03-23T12:26:10;93302.69;;;22.99;41.17
74336;BME280;62755;-33.398;-70.572;2024-03-23T12:28:40;93306.63;;;22.98;41.06
74336;BME280;62755;-33.398;-70.572;2024-03-23T12:31:08;93301.34;;;23.20;40.75
74336;BME280;62755;-33.398;-70.572;2024-03-23T12:33:38;93302.00;;;23.35;40.29
74336;BME280;62755;-33.398;-70.572;2024-03-23T12:36:06;93300.13;;;23.21;40.72
74336;BME280;62755;-33.398;-70.572;2024-03-23T12:38:35;93308.44;;;23.32;40.84
74336;BME280;62755;-33.398;-70.572;2024-03-23T12:41:04;93308.63;;;23.28;40.52
74336;BME280;62755;-33.398;-70.572;2024-03-23T12:43:35;93313.34;;;23.28;40.97
74336;BME280;62755;-33.398;-70.572;2024-03-23T12:46:05;93306.16;;;23.30;40.39
74336;BME280;62755;-33.398;-70.572;2024-03-23T12:48:35;93319.44;;;23.12;40.49
74336;BME280;62755;-33.398;-70.572;2024-03-23T12:51:04;93314.59;;;23.27;40.23
74336;BME280;62755;-33.398;-70.572;2024-03-23T12:53:33;93315.28;;;23.22;40.28
74336;BME280;62755;-33.398;-70.572;2024-03-23T12:56:01;93315.44;;;23.33;40.63
74336;BME280;62755;-33.398;-70.572;2024-03-23T12:58:31;93309.25;;;23.12;41.33
74336;BME280;62755;-33.398;-70.572;2024-03-23T13:01:01;93315.75;;;23.15;41.11
74336;BME280;62755;-33.398;-70.572;2024-03-23T13:03:33;93317.78;;;23.20;40.18
74336;BME280;62755;-33.398;-70.572;2024-03-23T13:06:03;93312.00;;;23.12;39.66
74336;BME280;62755;-33.398;-70.572;2024-03-23T13:08:34;93317.69;;;23.09;39.35
74336;BME280;62755;-33.398;-70.572;2024-03-23T13:11:04;93312.47;;;23.11;39.00
74336;BME280;62755;-33.398;-70.572;2024-03-23T13:13:33;93314.06;;;23.23;38.04
74336;BME280;62755;-33.398;-70.572;2024-03-23T13:16:05;93309.47;;;23.09;38.40
74336;BME280;62755;-33.398;-70.572;2024-03-23T13:18:33;93314.06;;;23.23;38.43
74336;BME280;62755;-33.398;-70.572;2024-03-23T13:21:04;93303.94;;;23.29;38.81
74336;BME280;62755;-33.398;-70.572;2024-03-23T13:23:33;93313.91;;;23.32;38.63
74336;BME280;62755;-33.398;-70.572;2024-03-23T13:26:03;93326.09;;;23.31;38.67
74336;BME280;62755;-33.398;-70.572;2024-03-23T13:28:31;93326.97;;;23.48;38.75
74336;BME280;62755;-33.398;-70.572;2024-03-23T13:31:01;93323.50;;;23.53;38.49
74336;BME280;62755;-33.398;-70.572;2024-03-23T13:33:32;93323.59;;;23.64;38.38
74336;BME280;62755;-33.398;-70.572;2024-03-23T13:36:02;93320.22;;;23.80;38.57
74336;BME280;62755;-33.398;-70.572;2024-03-23T13:38:30;93320.00;;;23.89;38.44
74336;BME280;62755;-33.398;-70.572;2024-03-23T13:41:01;93322.38;;;23.71;38.51